sensor_id;sensor_type;location;lat;lon;timestamp;pressure;altitude;pressure_sealevel;temperature;humidity
19457;BME280;9867;48.094;11.478;2023-04-02T00:00:03;94433.19;;;7.37;100.00
19457;BME280;9867;48.094;11.478;2023-04-02T00:02:44;94425.56;;;7.30;100.00
19457;BME280;9867;48.094;11.478;2023-04-02T00:05:40;94437.72;;;7.28;100.00
19457;BME280;9867;48.094;11.478;2023-04-02T00:08:23;94419.66;;;7.30;100.00
19457;BME280;9867;48.094;11.478;2023-04-02T00:10:54;94440.28;;;7.28;100.00
19457;BME280;9867;48.094;11.478;2023-04-02T00:13:28;94428.91;;;7.31;100.00
19457;BME280;9867;48.094;11.478;2023-04-02T00:15:57;94441.63;;;7.24;100.00
19457;BME280;9867;48.094;11.478;2023-04-02T00:18:26;94423.56;;;7.19;100.00
19457;BME280;9867;48.094;11.478;2023-04-02T00:20:59;94425.13;;;7.20;100.00
19457;BME280;9867;48.094;11.478;2023-04-02T00:23:34;94430.81;;;7.15;100.00
19457;BME280;9867;48.094;11.478;2023-04-02T00:26:05;94441.00;;;7.15;100.00
19457;BME280;9867;48.094;11.478;2023-04-02T00:28:34;94432.56;;;7.15;100.00
19457;BME280;9867;48.094;11.478;2023-04-02T00:31:01;94432.75;;;7.13;100.00
19457;BME280;9867;48.094;11.478;2023-04-02T00:33:30;94430.44;;;7.25;100.00
19457;BME280;9867;48.094;11.478;2023-04-02T00:35:58;94438.88;;;7.19;100.00
19457;BME280;9867;48.094;11.478;2023-04-02T00:38:29;94420.56;;;7.09;100.00
19457;BME280;9867;48.094;11.478;2023-04-02T00:41:02;94425.09;;;7.07;100.00
19457;BME280;9867;48.094;11.478;2023-04-02T00:43:33;94431.78;;;7.08;100.00
19457;BME280;9867;48.094;11.478;2023-04-02T00:46:07;94426.28;;;7.04;100.00
19457;BME280;9867;48.094;11.478;2023-04-02T00:48:44;94429.00;;;7.03;100.00
19457;BME280;9867;48.094;11.478;2023-04-02T00:51:19;94434.53;;;7.06;100.00
19457;BME280;9867;48.094;11.478;2023-04-02T00:53:51;94429.22;;;7.08;100.00
19457;BME280;9867;48.094;11.478;2023-04-02T00:56:24;94438.44;;;7.02;100.00
19457;BME280;9867;48.094;11.478;2023-04-02T00:58:55;94434.31;;;7.14;100.00
19457;BME280;9867;48.094;11.478;2023-04-02T01:01:25;94449.44;;;7.16;100.00
19457;BME280;9867;48.094;11.478;2023-04-02T01:03:56;94456.31;;;7.15;100.00
19457;BME280;9867;48.094;11.478;2023-04-02T01:06:28;94437.06;;;7.06;100.00
19457;BME280;9867;48.094;11.478;2023-04-02T01:09:07;94445.13;;;7.16;100.00
19457;BME280;9867;48.094;11.478;2023-04-02T01:12:05;94451.81;;;7.17;100.00
19457;BME280;9867;48.094;11.478;2023-04-02T01:14:44;94455.13;;;7.11;100.00
19457;BME280;9867;48.094;11.478;2023-04-02T01:17:25;94449.81;;;7.06;100.00
19457;BME280;9867;48.094;11.478;2023-04-02T01:20:17;94450.44;;;7.08;100.00
19457;BME280;9867;48.094;11.478;2023-04-02T01:22:53;94445.50;;;7.07;100.00
19457;BME280;9867;48.094;11.478;2023-04-02T01:25:27;94464.72;;;7.03;100.00
19457;BME280;9867;48.094;11.478;2023-04-02T01:28:04;94452.19;;;7.08;100.00
19457;BME280;9867;48.094;11.478;2023-04-02T01:30:37;94446.88;;;7.09;100.00
19457;BME280;9867;48.094;11.478;2023-04-02T01:33:07;94449.22;;;7.04;100.00
19457;BME280;9867;48.094;11.478;2023-04-02T01:35:38;94455.69;;;7.00;100.00
19457;BME280;9867;48.094;11.478;2023-04-02T01:38:14;94449.19;;;6.98;100.00
19457;BME280;9867;48.094;11.478;2023-04-02T01:40:52;94455.13;;;7.05;100.00
19457;BME280;9867;48.094;11.478;2023-04-02T01:43:29;94448.59;;;6.96;100.00
19457;BME280;9867;48.094;11.478;2023-04-02T01:46:22;94451.56;;;6.99;100.00
19457;BME280;9867;48.094;11.478;2023-04-02T01:48:51;94454.28;;;6.98;100.00
19457;BME280;9867;48.094;11.478;2023-04-02T01:51:28;94464.28;;;6.93;100.00
19457;BME280;9867;48.094;11.478;2023-04-02T01:53:58;94466.28;;;7.04;100.00
19457;BME280;9867;48.094;11.478;2023-04-02T01:56:27;94470.19;;;7.00;100.00
19457;BME280;9867;48.094;11.478;2023-04-02T01:58:57;94464.47;;;6.91;100.00
19457;BME280;9867;48.094;11.478;2023-04-02T02:01:32;94469.00;;;6.96;100.00
19457;BME280;9867;48.094;11.478;2023-04-02T02:04:03;94463.06;;;6.89;100.00
19457;BME280;9867;48.094;11.478;2023-04-02T02:06:31;94469.56;;;6.91;100.00
19457;BME280;9867;48.094;11.478;2023-04-02T02:09:02;94473.31;;;6.95;100.00
19457;BME280;9867;48.094;11.478;2023-04-02T02:11:33;94466.63;;;6.94;100.00
19457;BME280;9867;48.094;11.478;2023-04-02T02:14:05;94475.63;;;6.90;100.00
19457;BME280;9867;48.094;11.478;2023-04-02T02:16:39;94471.81;;;7.07;100.00
19457;BME280;9867;48.094;11.478;2023-04-02T02:19:19;94471.56;;;7.02;100.00
19457;BME280;9867;48.094;11.478;2023-04-02T02:21:51;94476.69;;;7.02;100.00
19457;BME280;9867;48.094;11.478;2023-04-02T02:24:23;94484.50;;;7.01;100.00
19457;BME280;9867;48.094;11.478;2023-04-02T02:27:02;94489.25;;;7.04;100.00
19457;BME280;9867;48.094;11.478;2023-04-02T02:29:35;94480.91;;;6.89;100.00
19457;BME280;9867;48.094;11.478;2023-04-02T02:32:06;94485.09;;;6.96;100.00
19457;BME280;9867;48.094;11.478;2023-04-02T02:34:40;94496.84;;;6.97;100.00
19457;BME280;9867;48.094;11.478;2023-04-02T02:37:12;94495.50;;;7.01;100.00
19457;BME280;9867;48.094;11.478;2023-04-02T02:39:43;94499.06;;;7.07;100.00
19457;BME280;9867;48.094;11.478;2023-04-02T02:42:17;94500.19;;;6.98;100.00
19457;BME280;9867;48.094;11.478;2023-04-02T02:44:53;94501.34;;;6.95;100.00
19457;BME280;9867;48.094;11.478;2023-04-02T02:47:26;94507.47;;;7.01;100.00
19457;BME280;9867;48.094;11.478;2023-04-02T02:49:58;94506.69;;;7.00;100.00
19457;BME280;9867;48.094;11.478;2023-04-02T02:52:29;94508.28;;;7.14;100.00
19457;BME280;9867;48.094;11.478;2023-04-02T02:55:05;94511.22;;;7.05;100.00
19457;BME280;9867;48.094;11.478;2023-04-02T02:57:53;94514.19;;;7.08;100.00
19457;BME280;9867;48.094;11.478;2023-04-02T03:00:25;94510.56;;;6.96;100.00
19457;BME280;9867;48.094;11.478;2023-04-02T03:02:58;94514.97;;;7.15;100.00
19457;BME280;9867;48.094;11.478;2023-04-02T03:05:29;94520.22;;;7.01;100.00
19457;BME280;9867;48.094;11.478;2023-04-02T03:08:07;94524.56;;;7.13;100.00
19457;BME280;9867;48.094;11.478;2023-04-02T03:10:43;94516.69;;;7.02;100.00
19457;BME280;9867;48.094;11.478;2023-04-02T03:13:17;94526.28;;;7.00;100.00
19457;BME280;9867;48.094;11.478;2023-04-02T03:15:55;94526.44;;;6.92;100.00
19457;BME280;9867;48.094;11.478;2023-04-02T03:18:33;94529.22;;;6.97;100.00
19457;BME280;9867;48.094;11.478;2023-04-02T03:21:09;94528.44;;;6.96;100.00
19457;BME280;9867;48.094;11.478;2023-04-02T03:23:42;94535.94;;;7.04;100.00
19457;BME280;9867;48.094;11.478;2023-04-02T03:26:14;94535.13;;;7.04;100.00
19457;BME280;9867;48.094;11.478;2023-04-02T03:28:50;94535.34;;;7.09;100.00
19457;BME280;9867;48.094;11.478;2023-04-02T03:31:22;94538.50;;;7.11;100.00
19457;BME280;9867;48.094;11.478;2023-04-02T03:33:57;94529.72;;;7.20;100.00
19457;BME280;9867;48.094;11.478;2023-04-02T03:36:30;94545.41;;;7.24;100.00
19457;BME280;9867;48.094;11.478;2023-04-02T03:39:04;94547.13;;;7.10;100.00
19457;BME280;9867;48.094;11.478;2023-04-02T03:41:40;94541.59;;;7.00;100.00
19457;BME280;9867;48.094;11.478;2023-04-02T03:44:20;94547.88;;;7.04;100.00
19457;BME280;9867;48.094;11.478;2023-04-02T03:46:52;94551.44;;;7.09;100.00
19457;BME280;9867;48.094;11.478;2023-04-02T03:49:33;94547.09;;;7.03;100.00
19457;BME280;9867;48.094;11.478;2023-04-02T03:52:08;94554.72;;;6.97;100.00
19457;BME280;9867;48.094;11.478;2023-04-02T03:54:38;94555.88;;;6.94;100.00
19457;BME280;9867;48.094;11.478;2023-04-02T03:57:25;94562.59;;;7.02;100.00
19457;BME280;9867;48.094;11.478;2023-04-02T04:00:02;94567.84;;;6.94;100.00
19457;BME280;9867;48.094;11.478;2023-04-02T04:02:43;94570.94;;;6.89;100.00
19457;BME280;9867;48.094;11.478;2023-04-02T04:05:22;94574.28;;;6.90;100.00
19457;BME280;9867;48.094;11.478;2023-04-02T04:07:56;94569.72;;;6.85;100.00
19457;BME280;9867;48.094;11.478;2023-04-02T04:10:25;94579.72;;;6.80;100.00
19457;BME280;9867;48.094;11.478;2023-04-02T04:12:55;94574.63;;;6.80;100.00
19457;BME280;9867;48.094;11.478;2023-04-02T04:15:31;94570.09;;;6.75;100.00
19457;BME280;9867;48.094;11.478;2023-04-02T04:18:06;94571.06;;;6.74;100.00
19457;BME280;9867;48.094;11.478;2023-04-02T04:20:47;94576.34;;;6.73;100.00
19457;BME280;9867;48.094;11.478;2023-04-02T04:23:28;94579.81;;;6.65;100.00
19457;BME280;9867;48.094;11.478;2023-04-02T04:26:00;94574.50;;;6.60;100.00
19457;BME280;9867;48.094;11.478;2023-04-02T04:28:41;94589.78;;;6.60;100.00
19457;BME280;9867;48.094;11.478;2023-04-02T04:31:16;94584.34;;;6.70;100.00
19457;BME280;9867;48.094;11.478;2023-04-02T04:33:52;94587.44;;;6.65;100.00
19457;BME280;9867;48.094;11.478;2023-04-02T04:36:28;94600.38;;;6.64;100.00
19457;BME280;9867;48.094;11.478;2023-04-02T04:39:06;94605.53;;;6.70;100.00
19457;BME280;9867;48.094;11.478;2023-04-02T04:41:37;94606.84;;;6.60;100.00
19457;BME280;9867;48.094;11.478;2023-04-02T04:44:11;94606.88;;;6.66;100.00
19457;BME280;9867;48.094;11.478;2023-04-02T04:46:46;94598.22;;;6.61;100.00
19457;BME280;9867;48.094;11.478;2023-04-02T04:49:23;94609.78;;;6.63;100.00
19457;BME280;9867;48.094;11.478;2023-04-02T04:51:55;94612.72;;;6.60;100.00
19457;BME280;9867;48.094;11.478;2023-04-02T04:54:26;94613.91;;;6.64;100.00
19457;BME280;9867;48.094;11.478;2023-04-02T04:57:00;94604.78;;;6.48;100.00
19457;BME280;9867;48.094;11.478;2023-04-02T04:59:32;94612.19;;;6.43;100.00
19457;BME280;9867;48.094;11.478;2023-04-02T05:02:06;94617.09;;;6.45;100.00
19457;BME280;9867;48.094;11.478;2023-04-02T05:04:39;94607.09;;;6.43;100.00
19457;BME280;9867;48.094;11.478;2023-04-02T05:07:17;94613.56;;;6.46;100.00
19457;BME280;9867;48.094;11.478;2023-04-02T05:09:52;94612.94;;;6.37;100.00
19457;BME280;9867;48.094;11.478;2023-04-02T05:12:30;94620.06;;;6.48;100.00
19457;BME280;9867;48.094;11.478;2023-04-02T05:15:05;94625.22;;;6.55;100.00
19457;BME280;9867;48.094;11.478;2023-04-02T05:17:42;94633.81;;;6.75;100.00
19457;BME280;9867;48.094;11.478;2023-04-02T05:20:17;94647.84;;;6.93;100.00
19457;BME280;9867;48.094;11.478;2023-04-02T05:22:55;94646.03;;;6.87;100.00
19457;BME280;9867;48.094;11.478;2023-04-02T05:25:25;94656.00;;;6.81;100.00
19457;BME280;9867;48.094;11.478;2023-04-02T05:28:02;94645.06;;;6.88;100.00
19457;BME280;9867;48.094;11.478;2023-04-02T05:30:44;94649.78;;;6.91;100.00
19457;BME280;9867;48.094;11.478;2023-04-02T05:33:21;94653.72;;;6.93;100.00
19457;BME280;9867;48.094;11.478;2023-04-02T05:35:59;94652.88;;;6.86;100.00
19457;BME280;9867;48.094;11.478;2023-04-02T05:38:34;94660.94;;;6.83;100.00
19457;BME280;9867;48.094;11.478;2023-04-02T05:41:06;94675.28;;;6.91;100.00
19457;BME280;9867;48.094;11.478;2023-04-02T05:43:43;94668.69;;;6.75;100.00
19457;BME280;9867;48.094;11.478;2023-04-02T05:46:15;94670.53;;;6.88;100.00
19457;BME280;9867;48.094;11.478;2023-04-02T05:48:50;94685.22;;;7.07;100.00
19457;BME280;9867;48.094;11.478;2023-04-02T05:51:23;94681.88;;;7.06;100.00
19457;BME280;9867;48.094;11.478;2023-04-02T05:53:55;94686.19;;;7.06;100.00
19457;BME280;9867;48.094;11.478;2023-04-02T05:56:29;94687.22;;;6.83;100.00
19457;BME280;9867;48.094;11.478;2023-04-02T05:59:05;94693.88;;;6.63;100.00
19457;BME280;9867;48.094;11.478;2023-04-02T06:01:39;94691.72;;;6.60;100.00
19457;BME280;9867;48.094;11.478;2023-04-02T06:04:26;94694.72;;;6.70;100.00
19457;BME280;9867;48.094;11.478;2023-04-02T06:06:58;94694.50;;;6.65;100.00
19457;BME280;9867;48.094;11.478;2023-04-02T06:09:35;94701.31;;;6.58;100.00
19457;BME280;9867;48.094;11.478;2023-04-02T06:12:17;94692.56;;;6.67;100.00
19457;BME280;9867;48.094;11.478;2023-04-02T06:14:46;94696.03;;;6.60;100.00
19457;BME280;9867;48.094;11.478;2023-04-02T06:17:17;94706.81;;;6.62;100.00
19457;BME280;9867;48.094;11.478;2023-04-02T06:19:46;94700.38;;;6.66;100.00
19457;BME280;9867;48.094;11.478;2023-04-02T06:22:22;94704.88;;;6.64;100.00
19457;BME280;9867;48.094;11.478;2023-04-02T06:24:59;94704.94;;;6.70;100.00
19457;BME280;9867;48.094;11.478;2023-04-02T06:27:36;94712.41;;;6.72;100.00
19457;BME280;9867;48.094;11.478;2023-04-02T06:30:15;94704.28;;;6.83;100.00
19457;BME280;9867;48.094;11.478;2023-04-02T06:32:47;94710.97;;;6.91;100.00
19457;BME280;9867;48.094;11.478;2023-04-02T06:35:19;94721.13;;;6.84;100.00
19457;BME280;9867;48.094;11.478;2023-04-02T06:38:00;94712.47;;;6.78;100.00
19457;BME280;9867;48.094;11.478;2023-04-02T06:40:39;94734.72;;;6.70;100.00
19457;BME280;9867;48.094;11.478;2023-04-02T06:43:26;94724.59;;;6.76;100.00
19457;BME280;9867;48.094;11.478;2023-04-02T06:46:25;94721.34;;;6.89;100.00
19457;BME280;9867;48.094;11.478;2023-04-02T06:49:12;94728.97;;;6.82;100.00
19457;BME280;9867;48.094;11.478;2023-04-02T06:51:43;94733.50;;;6.87;100.00
19457;BME280;9867;48.094;11.478;2023-04-02T06:54:14;94731.38;;;6.91;100.00
19457;BME280;9867;48.094;11.478;2023-04-02T06:56:49;94746.66;;;6.91;100.00
19457;BME280;9867;48.094;11.478;2023-04-02T06:59:25;94743.47;;;7.03;100.00
19457;BME280;9867;48.094;11.478;2023-04-02T07:01:57;94737.91;;;7.21;100.00
19457;BME280;9867;48.094;11.478;2023-04-02T07:04:26;94756.47;;;7.15;100.00
19457;BME280;9867;48.094;11.478;2023-04-02T07:06:54;94759.81;;;7.15;100.00
19457;BME280;9867;48.094;11.478;2023-04-02T07:09:25;94764.38;;;7.20;100.00
19457;BME280;9867;48.094;11.478;2023-04-02T07:11:58;94759.56;;;7.94;100.00
19457;BME280;9867;48.094;11.478;2023-04-02T07:14:26;94764.47;;;7.61;100.00
19457;BME280;9867;48.094;11.478;2023-04-02T07:16:54;94766.59;;;8.27;100.00
19457;BME280;9867;48.094;11.478;2023-04-02T07:19:21;94769.41;;;8.45;100.00
19457;BME280;9867;48.094;11.478;2023-04-02T07:21:54;94776.75;;;8.20;100.00
19457;BME280;9867;48.094;11.478;2023-04-02T07:24:24;94786.84;;;7.94;100.00
19457;BME280;9867;48.094;11.478;2023-04-02T07:26:52;94776.53;;;8.15;100.00
19457;BME280;9867;48.094;11.478;2023-04-02T07:29:21;94771.59;;;8.07;100.00
19457;BME280;9867;48.094;11.478;2023-04-02T07:31:49;94774.25;;;8.27;100.00
19457;BME280;9867;48.094;11.478;2023-04-02T07:34:18;94783.34;;;8.36;100.00
19457;BME280;9867;48.094;11.478;2023-04-02T07:36:46;94785.41;;;8.19;100.00
19457;BME280;9867;48.094;11.478;2023-04-02T07:39:14;94791.13;;;8.28;100.00
19457;BME280;9867;48.094;11.478;2023-04-02T07:41:52;94792.50;;;8.24;100.00
19457;BME280;9867;48.094;11.478;2023-04-02T07:44:22;94795.69;;;8.32;100.00
19457;BME280;9867;48.094;11.478;2023-04-02T07:46:50;94798.00;;;8.27;100.00
19457;BME280;9867;48.094;11.478;2023-04-02T07:49:18;94798.19;;;8.19;100.00
19457;BME280;9867;48.094;11.478;2023-04-02T07:51:46;94806.81;;;8.18;100.00
19457;BME280;9867;48.094;11.478;2023-04-02T07:54:14;94805.06;;;8.18;100.00
19457;BME280;9867;48.094;11.478;2023-04-02T07:56:42;94808.63;;;8.24;100.00
19457;BME280;9867;48.094;11.478;2023-04-02T07:59:10;94809.75;;;8.15;100.00
19457;BME280;9867;48.094;11.478;2023-04-02T08:01:39;94812.63;;;8.33;100.00
19457;BME280;9867;48.094;11.478;2023-04-02T08:04:16;94821.41;;;8.31;100.00
19457;BME280;9867;48.094;11.478;2023-04-02T08:06:45;94832.19;;;8.19;100.00
19457;BME280;9867;48.094;11.478;2023-04-02T08:09:14;94821.72;;;8.42;100.00
19457;BME280;9867;48.094;11.478;2023-04-02T08:11:42;94828.91;;;8.73;100.00
19457;BME280;9867;48.094;11.478;2023-04-02T08:14:11;94823.22;;;8.98;100.00
19457;BME280;9867;48.094;11.478;2023-04-02T08:16:47;94820.41;;;8.66;100.00
19457;BME280;9867;48.094;11.478;2023-04-02T08:19:16;94830.88;;;8.78;100.00
19457;BME280;9867;48.094;11.478;2023-04-02T08:21:44;94837.75;;;8.77;100.00
19457;BME280;9867;48.094;11.478;2023-04-02T08:24:13;94834.22;;;8.78;100.00
19457;BME280;9867;48.094;11.478;2023-04-02T08:26:43;94848.25;;;9.02;100.00
19457;BME280;9867;48.094;11.478;2023-04-02T08:29:11;94846.84;;;8.93;100.00
19457;BME280;9867;48.094;11.478;2023-04-02T08:31:42;94847.47;;;9.08;100.00
19457;BME280;9867;48.094;11.478;2023-04-02T08:34:11;94845.44;;;8.84;100.00
19457;BME280;9867;48.094;11.478;2023-04-02T08:36:40;94845.69;;;8.96;100.00
19457;BME280;9867;48.094;11.478;2023-04-02T08:39:09;94857.28;;;8.92;100.00
19457;BME280;9867;48.094;11.478;2023-04-02T08:41:43;94842.06;;;8.70;100.00
19457;BME280;9867;48.094;11.478;2023-04-02T08:44:18;94845.59;;;8.76;100.00
19457;BME280;9867;48.094;11.478;2023-04-02T08:46:51;94845.22;;;8.79;100.00
19457;BME280;9867;48.094;11.478;2023-04-02T08:49:28;94853.38;;;8.96;100.00
19457;BME280;9867;48.094;11.478;2023-04-02T08:51:58;94856.09;;;9.01;100.00
19457;BME280;9867;48.094;11.478;2023-04-02T08:54:27;94858.25;;;8.91;100.00
19457;BME280;9867;48.094;11.478;2023-04-02T08:56:59;94866.94;;;8.96;100.00
19457;BME280;9867;48.094;11.478;2023-04-02T08:59:32;94865.16;;;8.90;100.00
19457;BME280;9867;48.094;11.478;2023-04-02T09:02:24;94856.72;;;8.96;100.00
19457;BME280;9867;48.094;11.478;2023-04-02T09:04:57;94867.72;;;9.03;100.00
19457;BME280;9867;48.094;11.478;2023-04-02T09:07:27;94865.22;;;9.16;100.00
19457;BME280;9867;48.094;11.478;2023-04-02T09:09:55;94865.44;;;9.48;100.00
19457;BME280;9867;48.094;11.478;2023-04-02T09:12:26;94876.28;;;9.43;100.00
19457;BME280;9867;48.094;11.478;2023-04-02T09:15:04;94867.59;;;9.51;100.00
19457;BME280;9867;48.094;11.478;2023-04-02T09:17:33;94885.94;;;9.41;100.00
19457;BME280;9867;48.094;11.478;2023-04-02T09:20:23;94889.84;;;9.31;100.00
19457;BME280;9867;48.094;11.478;2023-04-02T09:22:53;94896.34;;;9.33;100.00
19457;BME280;9867;48.094;11.478;2023-04-02T09:25:23;94878.25;;;9.41;100.00
19457;BME280;9867;48.094;11.478;2023-04-02T09:27:55;94890.66;;;9.51;100.00
19457;BME280;9867;48.094;11.478;2023-04-02T09:30:33;94887.50;;;9.69;100.00
19457;BME280;9867;48.094;11.478;2023-04-02T09:33:07;94897.56;;;9.64;100.00
19457;BME280;9867;48.094;11.478;2023-04-02T09:35:53;94886.34;;;9.78;100.00
19457;BME280;9867;48.094;11.478;2023-04-02T09:38:23;94901.09;;;9.49;100.00
19457;BME280;9867;48.094;11.478;2023-04-02T09:40:58;94891.25;;;9.40;100.00
19457;BME280;9867;48.094;11.478;2023-04-02T09:43:27;94900.50;;;9.47;100.00
19457;BME280;9867;48.094;11.478;2023-04-02T09:45:58;94909.16;;;9.33;100.00
19457;BME280;9867;48.094;11.478;2023-04-02T09:48:30;94908.59;;;9.44;100.00
19457;BME280;9867;48.094;11.478;2023-04-02T09:51:06;94893.81;;;9.53;100.00
19457;BME280;9867;48.094;11.478;2023-04-02T09:53:36;94898.97;;;9.66;100.00
19457;BME280;9867;48.094;11.478;2023-04-02T09:56:10;94900.13;;;9.97;100.00
19457;BME280;9867;48.094;11.478;2023-04-02T09:58:39;94901.91;;;9.89;100.00
19457;BME280;9867;48.094;11.478;2023-04-02T10:01:24;94909.41;;;9.84;100.00
19457;BME280;9867;48.094;11.478;2023-04-02T10:03:54;94908.00;;;9.82;100.00
19457;BME280;9867;48.094;11.478;2023-04-02T10:06:24;94911.97;;;9.91;100.00
19457;BME280;9867;48.094;11.478;2023-04-02T10:08:52;94911.75;;;10.12;100.00
19457;BME280;9867;48.094;11.478;2023-04-02T10:11:25;94917.06;;;10.37;100.00
19457;BME280;9867;48.094;11.478;2023-04-02T10:14:09;94924.34;;;10.53;100.00
19457;BME280;9867;48.094;11.478;2023-04-02T10:16:45;94925.31;;;10.59;100.00
19457;BME280;9867;48.094;11.478;2023-04-02T10:19:22;94917.41;;;10.61;100.00
19457;BME280;9867;48.094;11.478;2023-04-02T10:21:55;94915.97;;;10.78;100.00
19457;BME280;9867;48.094;11.478;2023-04-02T10:24:26;94915.31;;;10.96;100.00
19457;BME280;9867;48.094;11.478;2023-04-02T10:27:01;94920.81;;;10.99;100.00
19457;BME280;9867;48.094;11.478;2023-04-02T10:29:40;94920.34;;;10.64;100.00
19457;BME280;9867;48.094;11.478;2023-04-02T10:32:15;94919.53;;;10.77;100.00
19457;BME280;9867;48.094;11.478;2023-04-02T10:34:51;94919.94;;;10.67;100.00
19457;BME280;9867;48.094;11.478;2023-04-02T10:37:48;94911.84;;;10.70;100.00
19457;BME280;9867;48.094;11.478;2023-04-02T10:40:20;94914.91;;;10.99;100.00
19457;BME280;9867;48.094;11.478;2023-04-02T10:42:58;94917.69;;;10.97;100.00
19457;BME280;9867;48.094;11.478;2023-04-02T10:45:38;94924.59;;;10.97;100.00
19457;BME280;9867;48.094;11.478;2023-04-02T10:48:14;94920.97;;;10.53;100.00
19457;BME280;9867;48.094;11.478;2023-04-02T10:50:50;94876.47;;;10.28;100.00
19457;BME280;9867;48.094;11.478;2023-04-02T10:53:25;94921.69;;;10.86;100.00
19457;BME280;9867;48.094;11.478;2023-04-02T10:55:58;94912.22;;;10.80;100.00
19457;BME280;9867;48.094;11.478;2023-04-02T10:58:30;94938.00;;;11.05;100.00
19457;BME280;9867;48.094;11.478;2023-04-02T11:01:05;94926.16;;;11.36;100.00
19457;BME280;9867;48.094;11.478;2023-04-02T11:03:41;94932.31;;;11.35;100.00
19457;BME280;9867;48.094;11.478;2023-04-02T11:06:15;94933.06;;;11.42;100.00
19457;BME280;9867;48.094;11.478;2023-04-02T11:08:47;94939.63;;;11.69;100.00
19457;BME280;9867;48.094;11.478;2023-04-02T11:11:19;94936.72;;;11.90;100.00
19457;BME280;9867;48.094;11.478;2023-04-02T11:13:53;94934.56;;;11.87;100.00
19457;BME280;9867;48.094;11.478;2023-04-02T11:16:23;94948.13;;;11.70;100.00
19457;BME280;9867;48.094;11.478;2023-04-02T11:19:24;94945.00;;;11.61;100.00
19457;BME280;9867;48.094;11.478;2023-04-02T11:21:53;94946.91;;;11.41;100.00
19457;BME280;9867;48.094;11.478;2023-04-02T11:24:46;94939.78;;;11.43;100.00
19457;BME280;9867;48.094;11.478;2023-04-02T11:27:19;94951.41;;;11.45;100.00
19457;BME280;9867;48.094;11.478;2023-04-02T11:29:48;94945.28;;;11.08;100.00
19457;BME280;9867;48.094;11.478;2023-04-02T11:32:30;94960.66;;;11.15;100.00
19457;BME280;9867;48.094;11.478;2023-04-02T11:35:24;94956.59;;;10.87;100.00
19457;BME280;9867;48.094;11.478;2023-04-02T11:37:53;94970.59;;;10.98;100.00
19457;BME280;9867;48.094;11.478;2023-04-02T11:40:48;94956.75;;;10.99;100.00
19457;BME280;9867;48.094;11.478;2023-04-02T11:43:46;94964.78;;;11.16;100.00
19457;BME280;9867;48.094;11.478;2023-04-02T11:46:34;94957.19;;;11.34;100.00
19457;BME280;9867;48.094;11.478;2023-04-02T11:49:33;94965.03;;;11.84;100.00
19457;BME280;9867;48.094;11.478;2023-04-02T11:52:03;94960.25;;;11.56;100.00
19457;BME280;9867;48.094;11.478;2023-04-02T11:54:38;94973.03;;;11.69;100.00
19457;BME280;9867;48.094;11.478;2023-04-02T11:57:18;94968.19;;;11.86;100.00
19457;BME280;9867;48.094;11.478;2023-04-02T12:00:02;94971.00;;;12.09;100.00
19457;BME280;9867;48.094;11.478;2023-04-02T12:02:51;94963.59;;;11.94;100.00
19457;BME280;9867;48.094;11.478;2023-04-02T12:05:30;94968.66;;;11.70;100.00
19457;BME280;9867;48.094;11.478;2023-04-02T12:08:18;94974.00;;;11.75;100.00
19457;BME280;9867;48.094;11.478;2023-04-02T12:10:54;94965.22;;;11.51;100.00
19457;BME280;9867;48.094;11.478;2023-04-02T12:13:52;94978.97;;;11.32;100.00
19457;BME280;9867;48.094;11.478;2023-04-02T12:16:20;94967.91;;;11.31;100.00
19457;BME280;9867;48.094;11.478;2023-04-02T12:18:53;94974.13;;;11.48;100.00
19457;BME280;9867;48.094;11.478;2023-04-02T12:21:23;94976.94;;;11.40;100.00
19457;BME280;9867;48.094;11.478;2023-04-02T12:23:54;94982.75;;;11.60;100.00
19457;BME280;9867;48.094;11.478;2023-04-02T12:26:27;94976.97;;;11.72;100.00
19457;BME280;9867;48.094;11.478;2023-04-02T12:29:23;94990.03;;;11.77;100.00
19457;BME280;9867;48.094;11.478;2023-04-02T12:31:58;94972.63;;;12.28;100.00
19457;BME280;9867;48.094;11.478;2023-04-02T12:34:28;94967.06;;;12.32;100.00
19457;BME280;9867;48.094;11.478;2023-04-02T12:36:57;94981.22;;;12.41;100.00
19457;BME280;9867;48.094;11.478;2023-04-02T12:39:32;94969.78;;;12.37;100.00
19457;BME280;9867;48.094;11.478;2023-04-02T12:42:02;94986.38;;;11.84;100.00
19457;BME280;9867;48.094;11.478;2023-04-02T12:44:31;94994.75;;;11.73;100.00
19457;BME280;9867;48.094;11.478;2023-04-02T12:47:03;94992.38;;;11.34;100.00
19457;BME280;9867;48.094;11.478;2023-04-02T12:49:34;94966.03;;;11.00;100.00
19457;BME280;9867;48.094;11.478;2023-04-02T12:52:08;94989.53;;;11.48;100.00
19457;BME280;9867;48.094;11.478;2023-04-02T12:54:45;94995.28;;;11.44;100.00
19457;BME280;9867;48.094;11.478;2023-04-02T12:57:30;94981.66;;;11.43;100.00
19457;BME280;9867;48.094;11.478;2023-04-02T13:00:25;94997.16;;;11.61;100.00
19457;BME280;9867;48.094;11.478;2023-04-02T13:02:58;94992.88;;;11.93;100.00
19457;BME280;9867;48.094;11.478;2023-04-02T13:05:33;95007.31;;;11.56;100.00
19457;BME280;9867;48.094;11.478;2023-04-02T13:08:03;94991.75;;;11.38;100.00
19457;BME280;9867;48.094;11.478;2023-04-02T13:10:34;94997.56;;;11.65;100.00
19457;BME280;9867;48.094;11.478;2023-04-02T13:13:03;95000.72;;;11.60;100.00
19457;BME280;9867;48.094;11.478;2023-04-02T13:15:33;94954.97;;;11.06;100.00
19457;BME280;9867;48.094;11.478;2023-04-02T13:18:06;94994.06;;;11.02;100.00
19457;BME280;9867;48.094;11.478;2023-04-02T13:20:42;94997.31;;;10.71;100.00
19457;BME280;9867;48.094;11.478;2023-04-02T13:23:30;94999.91;;;10.44;100.00
19457;BME280;9867;48.094;11.478;2023-04-02T13:26:04;94998.66;;;9.81;100.00
19457;BME280;9867;48.094;11.478;2023-04-02T13:28:36;95002.25;;;9.19;100.00
19457;BME280;9867;48.094;11.478;2023-04-02T13:31:09;94973.41;;;8.97;100.00
19457;BME280;9867;48.094;11.478;2023-04-02T13:33:40;94972.50;;;8.77;100.00
19457;BME280;9867;48.094;11.478;2023-04-02T13:36:14;94963.34;;;8.89;100.00